Etusivu
METAR-TAF:

METAR-TAF

Lentoasemat :

Trollhättan-Vänersborg, Ruotsi

Leveyspiiri: 58-19N, Pituuspiiri: 012-21E, korkeus merenpinnasta: 41 m

Tämänhetkinen sää

Tämä raportti tehtiin 7 tuntia ja 35 minuuttia sitten, kello 19.20 UTC
Tuuli 10 kn lännestä/lounaasta
Lämpötila 7°C
Kosteus 93%
Ilmanpaine 1000 hPa
Näkyvyys 10 km tai enemmän
Hajanaisia pilviä 1300 ft:n korkeudessa

METAR: ESGT 241920Z 24010KT 9999 SCT013 07/06 Q1000

Aika: 04:55 (02:55 UTC)

Sääennuste

Tämä raportti tehtiin 9 tuntia ja 25 minuuttia sitten, kello 17.30 UTC
Ennuste voimassa 24. päivästä klo 18 UTC - 24. päivään klo 21 UTC
Tuuli 12 kn lännestä
Näkyvyys 10 km tai enemmän
Hajonneita pilviä 600 ft:n korkeudessa
Tulossa
24. päivästä klo 18 UTC - 24. päivään klo 20 UTC
Hajanaisia pilviä 2000 ft:n korkeudessa

TAF: ESGT 241730Z 2418/2421 26012KT 9999 BKN006 BECMG 2418/2420 SCT020

Säähavainnot ja -ennusteet yli 4000 lentoasemalta (METAR- ja TAF-raportit).

Käytössä olevat sääasemat on merkitty karttaan keltaisilla ja punaisilla pisteillä.

Aseta hiiri pisteen päälle nähdäksesi sääaseman nimen.

Klikkaa sitten nähdäksesi säähavainnot ja -ennusteet.

Kartan vaihtaminen: klikkaa mustalla rastilla varustettuja vihreitä pisteitä, niin voit zoomata sisään; viivalla varustettua vihreää pistettä, niin voit zoomata ulos tai vihreitä nuolia, niin pääset viereisille kartoille.


METAR-TAF: